Time;durP1;ratioP1;P1;durP2;ratioP2;P2;SDS_P1;SDS_P2;PMS_P1;PMS_P2;Temp;Humidity;BMP_temperature;BMP_pressure;BME280_temperature;BME280_humidity;BME280_pressure;Samples;Min_cycle;Max_cycle;Signal;HPM_P1;HPM_P2
2021/07/29 00:00:37;;;;;;;2.63;2.42;;;17.50;1.00;;;;;;5007334;28;20034;-74
2021/07/29 00:03:04;;;;;;;2.95;2.63;;;17.50;1.00;;;;;;5013742;28;20398;-76
2021/07/29 00:05:31;;;;;;;2.50;2.30;;;17.50;1.00;;;;;;5016319;28;20080;-75
2021/07/29 00:07:56;;;;;;;3.40;2.90;;;17.50;1.00;;;;;;5015199;28;20506;-76
2021/07/29 00:10:23;;;;;;;3.28;2.38;;;17.40;1.00;;;;;;5015142;28;20061;-76
2021/07/29 00:12:49;;;;;;;3.10;2.63;;;17.50;1.00;;;;;;5015401;28;20026;-76
2021/07/29 00:15:16;;;;;;;3.25;2.70;;;17.50;1.00;;;;;;4995333;28;20026;-75
2021/07/29 00:20:16;;;;;;;2.95;2.63;;;17.40;1.00;;;;;;5023105;28;20026;-76
2021/07/29 00:22:43;;;;;;;3.20;2.90;;;17.40;1.00;;;;;;5021992;28;20041;-76
2021/07/29 00:25:13;;;;;;;3.05;2.72;;;17.40;1.00;;;;;;5019021;28;20034;-74
2021/07/29 00:27:39;;;;;;;3.03;2.58;;;17.50;1.00;;;;;;5000007;28;20026;-75
2021/07/29 00:30:06;;;;;;;2.85;2.65;;;17.60;99.90;;;;;;5015675;28;20022;-75
2021/07/29 00:32:32;;;;;;;2.63;2.25;;;17.60;99.90;;;;;;5015327;28;20363;-75
2021/07/29 00:34:57;;;;;;;2.30;2.13;;;17.70;99.90;;;;;;5014496;28;20014;-75
2021/07/29 00:37:23;;;;;;;3.03;2.30;;;17.60;99.90;;;;;;5013030;28;20034;-75
2021/07/29 00:39:48;;;;;;;2.95;2.65;;;17.60;99.90;;;;;;5014239;28;20040;-76
2021/07/29 00:42:14;;;;;;;2.60;2.40;;;17.50;99.90;;;;;;5013049;28;20042;-76
2021/07/29 00:44:39;;;;;;;4.25;2.90;;;17.50;99.90;;;;;;5015612;28;20029;-76
2021/07/29 00:47:06;;;;;;;2.58;2.38;;;17.50;99.90;;;;;;5014397;28;20034;-75
2021/07/29 00:49:35;;;;;;;2.58;2.38;;;17.50;99.90;;;;;;5014319;28;20022;-76
2021/07/29 00:52:01;;;;;;;3.08;2.75;;;17.50;99.90;;;;;;5013096;28;20026;-76
2021/07/29 00:54:30;;;;;;;2.78;2.55;;;17.40;1.00;;;;;;5014546;28;20481;-75
2021/07/29 00:57:01;;;;;;;6.38;2.83;;;17.40;99.90;;;;;;5014252;28;20033;-76
2021/07/29 00:59:26;;;;;;;;;;;17.30;1.00;;;;;;5016398;28;20042;-75
2021/07/29 01:01:52;;;;;;;2.70;2.40;;;17.20;1.00;;;;;;5011362;28;19909;-75
2021/07/29 01:04:17;;;;;;;6.32;2.13;;;17.20;1.00;;;;;;5014144;28;20026;-76
2021/07/29 01:06:45;;;;;;;3.05;2.33;;;17.10;1.00;;;;;;5013959;28;20045;-76
2021/07/29 01:09:11;;;;;;;3.75;2.13;;;17.00;1.00;;;;;;5014046;28;20022;-76
2021/07/29 01:11:42;;;;;;;2.42;2.22;;;17.00;1.00;;;;;;4996465;28;20071;-76
2021/07/29 01:14:09;;;;;;;4.22;3.35;;;17.00;1.00;;;;;;5014024;28;20025;-75
2021/07/29 01:16:35;;;;;;;5.95;2.22;;;17.10;1.00;;;;;;5014270;28;20034;-76
2021/07/29 01:19:02;;;;;;;4.05;2.35;;;17.10;1.00;;;;;;5013433;28;20033;-76
2021/07/29 01:21:29;;;;;;;2.00;1.83;;;17.00;1.00;;;;;;5013886;28;20041;-76
2021/07/29 01:23:56;;;;;;;2.45;2.25;;;17.00;1.00;;;;;;5013708;28;20029;-76
2021/07/29 01:26:21;;;;;;;3.08;2.60;;;17.00;1.00;;;;;;5013489;28;20021;-76
2021/07/29 01:28:47;;;;;;;3.88;2.03;;;16.90;1.00;;;;;;5012691;28;20029;-76
2021/07/29 01:31:13;;;;;;;2.58;2.33;;;16.90;1.00;;;;;;5013722;28;20088;-75
2021/07/29 01:33:40;;;;;;;3.25;2.30;;;17.00;1.00;;;;;;5013335;28;20025;-77
2021/07/29 01:36:06;;;;;;;2.30;2.10;;;17.00;1.00;;;;;;5013869;28;20040;-76
2021/07/29 01:38:32;;;;;;;2.63;2.30;;;16.90;1.00;;;;;;5004178;28;20116;-75
2021/07/29 01:40:59;;;;;;;3.13;2.30;;;16.90;1.00;;;;;;4989261;28;20108;-75
2021/07/29 01:43:25;;;;;;;2.67;2.47;;;16.90;1.00;;;;;;5013293;28;20034;-75
2021/07/29 01:45:50;;;;;;;3.50;2.85;;;16.90;1.00;;;;;;5031437;28;20036;-74
2021/07/29 01:48:16;;;;;;;2.97;2.10;;;16.90;1.00;;;;;;5031056;28;20045;-74
2021/07/29 01:50:45;;;;;;;2.80;2.60;;;16.90;1.00;;;;;;5032775;28;20030;-75
2021/07/29 01:53:11;;;;;;;2.47;2.28;;;17.00;1.00;;;;;;5024162;28;20026;-75
2021/07/29 01:55:42;;;;;;;2.53;2.33;;;17.00;1.00;;;;;;5013860;28;20049;-75
2021/07/29 01:58:08;;;;;;;2.40;2.20;;;16.90;1.00;;;;;;4995622;28;20038;-75
2021/07/29 02:00:34;;;;;;;2.58;2.25;;;17.00;1.00;;;;;;5013099;28;20040;-75
2021/07/29 02:02:59;;;;;;;2.83;2.53;;;17.00;1.00;;;;;;5013300;28;20144;-75
2021/07/29 02:05:25;;;;;;;3.15;2.50;;;16.90;1.00;;;;;;5020354;28;20125;-76
2021/07/29 02:07:51;;;;;;;5.05;2.72;;;17.00;1.00;;;;;;5013193;28;20022;-76
2021/07/29 02:10:16;;;;;;;4.93;2.50;;;17.00;1.00;;;;;;5011635;28;20068;-75
2021/07/29 02:12:42;;;;;;;3.10;2.20;;;16.90;1.00;;;;;;5017065;28;20021;-75
2021/07/29 02:15:08;;;;;;;3.67;2.97;;;16.90;1.00;;;;;;4997387;28;20034;-75
2021/07/29 02:17:34;;;;;;;2.70;2.50;;;16.80;1.00;;;;;;5012704;28;20041;-75
2021/07/29 02:19:59;;;;;;;2.88;2.67;;;16.80;1.00;;;;;;5012518;28;20038;-75
2021/07/29 02:22:25;;;;;;;2.55;2.35;;;16.70;1.00;;;;;;4994941;28;20112;-76
2021/07/29 02:24:50;;;;;;;4.30;3.90;;;16.70;1.00;;;;;;5012953;28;20157;-74
2021/07/29 02:27:16;;;;;;;4.60;2.75;;;16.70;1.00;;;;;;5012462;28;20072;-75
2021/07/29 02:29:42;;;;;;;3.17;2.60;;;16.60;1.00;;;;;;5014846;28;20038;-75
2021/07/29 02:32:08;;;;;;;3.78;2.78;;;16.70;1.00;;;;;;5012879;28;20485;-75
2021/07/29 02:34:33;;;;;;;3.40;3.10;;;16.80;1.00;;;;;;5012539;28;20113;-75
2021/07/29 02:36:59;;;;;;;3.58;2.45;;;16.90;1.00;;;;;;5011887;28;20038;-75
2021/07/29 02:39:24;;;;;;;4.05;2.80;;;16.90;1.00;;;;;;5004038;28;20036;-75
2021/07/29 02:41:50;;;;;;;3.28;2.75;;;16.90;1.00;;;;;;5012709;28;20069;-75
2021/07/29 02:44:16;;;;;;;3.17;2.97;;;16.80;1.00;;;;;;5012041;28;20072;-75
2021/07/29 02:46:41;;;;;;;4.30;2.92;;;16.90;1.00;;;;;;5011869;28;20367;-75
2021/07/29 02:49:07;;;;;;;3.42;3.13;;;16.90;1.00;;;;;;4994577;28;20097;-75
2021/07/29 02:51:33;;;;;;;3.15;2.72;;;16.90;1.00;;;;;;4994544;28;20030;-74
2021/07/29 02:53:58;;;;;;;3.30;3.00;;;16.90;1.00;;;;;;5012236;28;20486;-75
2021/07/29 02:56:24;;;;;;;4.88;2.85;;;17.00;1.00;;;;;;5019653;28;20030;-75
2021/07/29 02:58:49;;;;;;;3.60;2.80;;;17.00;1.00;;;;;;5012205;28;20477;-75
2021/07/29 03:01:17;;;;;;;3.83;2.75;;;17.00;1.00;;;;;;5010692;28;20102;-74
2021/07/29 03:03:44;;;;;;;6.80;4.40;;;17.00;1.00;;;;;;5012096;28;20541;-75
2021/07/29 03:06:10;;;;;;;3.58;3.15;;;17.00;1.00;;;;;;5012189;28;20030;-75
2021/07/29 03:08:36;;;;;;;3.65;2.95;;;17.10;1.00;;;;;;5012263;28;20254;-74
2021/07/29 03:11:02;;;;;;;4.90;3.20;;;17.00;1.00;;;;;;5013430;28;20053;-74
2021/07/29 03:13:28;;;;;;;3.65;3.25;;;17.00;1.00;;;;;;5014126;28;20022;-75
2021/07/29 03:15:54;;;;;;;4.05;3.20;;;17.00;1.00;;;;;;5013212;28;20022;-74
2021/07/29 03:18:20;;;;;;;3.38;3.08;;;17.00;1.00;;;;;;5013102;28;20139;-75
2021/07/29 03:20:45;;;;;;;3.05;2.75;;;16.90;1.00;;;;;;5012387;28;20031;-75
2021/07/29 03:23:11;;;;;;;5.20;3.25;;;16.90;1.00;;;;;;5012796;28;20096;-75
2021/07/29 03:25:37;;;;;;;3.78;3.35;;;16.90;1.00;;;;;;5013299;28;20405;-75
2021/07/29 03:28:04;;;;;;;3.72;3.42;;;16.90;1.00;;;;;;5013545;28;20465;-76
2021/07/29 03:30:30;;;;;;;3.67;3.30;;;16.90;1.00;;;;;;5014254;28;20045;-75
2021/07/29 03:32:55;;;;;;;5.43;4.45;;;16.80;1.00;;;;;;4997639;28;20033;-75
2021/07/29 03:35:21;;;;;;;3.38;2.95;;;16.80;1.00;;;;;;5014052;28;20018;-75
2021/07/29 03:37:47;;;;;;;3.25;2.95;;;16.90;1.00;;;;;;5015814;28;20091;-75
2021/07/29 03:40:13;;;;;;;5.47;3.53;;;16.90;1.00;;;;;;5015550;28;20087;-75
2021/07/29 03:42:39;;;;;;;4.85;3.22;;;16.90;1.00;;;;;;5023987;28;20029;-75
2021/07/29 03:45:05;;;;;;;4.10;3.22;;;16.90;1.00;;;;;;4999319;28;20038;-75
2021/07/29 03:47:31;;;;;;;3.47;3.17;;;16.90;1.00;;;;;;5017964;28;20030;-76
2021/07/29 03:49:56;;;;;;;3.70;3.40;;;16.80;1.00;;;;;;5015235;28;20030;-75
2021/07/29 03:52:22;;;;;;;4.00;2.83;;;16.90;1.00;;;;;;5024321;28;20034;-75
2021/07/29 03:54:51;;;;;;;6.72;3.30;;;16.90;1.00;;;;;;4999879;28;20375;-75
2021/07/29 03:57:18;;;;;;;4.07;3.67;;;16.80;1.00;;;;;;5015425;28;20041;-75
2021/07/29 03:59:44;;;;;;;3.97;3.17;;;16.90;1.00;;;;;;5015182;28;20021;-76
2021/07/29 04:02:10;;;;;;;4.05;3.38;;;16.90;1.00;;;;;;5015293;28;20537;-76
2021/07/29 04:04:39;;;;;;;6.82;3.40;;;16.90;1.00;;;;;;5015225;28;20526;-76
2021/07/29 04:07:05;;;;;;;3.45;3.15;;;16.90;1.00;;;;;;5015456;28;20390;-75
2021/07/29 04:09:31;;;;;;;5.50;3.40;;;17.00;1.00;;;;;;5013073;28;20024;-75
2021/07/29 04:11:57;;;;;;;3.88;3.30;;;16.90;1.00;;;;;;5012334;28;20117;-76
2021/07/29 04:14:22;;;;;;;5.07;3.33;;;17.00;1.00;;;;;;5014983;28;20029;-76
2021/07/29 04:16:48;;;;;;;5.65;3.35;;;16.90;1.00;;;;;;5016440;28;20064;-75
2021/07/29 04:19:13;;;;;;;4.88;2.85;;;16.90;1.00;;;;;;5014757;28;20390;-75
2021/07/29 04:21:39;;;;;;;3.67;3.00;;;17.00;1.00;;;;;;5015289;28;20392;-75
2021/07/29 04:24:04;;;;;;;3.47;3.17;;;17.00;1.00;;;;;;5015305;28;20033;-76
2021/07/29 04:26:30;;;;;;;4.10;3.45;;;17.10;1.00;;;;;;5014537;28;20379;-76
2021/07/29 04:28:55;;;;;;;4.20;3.80;;;17.20;1.00;;;;;;5014746;28;20028;-76
2021/07/29 04:31:21;;;;;;;4.25;3.67;;;17.30;1.00;;;;;;5014609;28;20025;-76
2021/07/29 04:33:47;;;;;;;4.32;3.17;;;17.40;1.00;;;;;;5022817;28;20022;-76
2021/07/29 04:36:12;;;;;;;5.05;3.33;;;17.40;99.90;;;;;;5014562;28;20148;-76
2021/07/29 04:38:38;;;;;;;4.78;4.30;;;17.50;99.90;;;;;;5041281;22;20033;-75
2021/07/29 04:41:05;;;;;;;4.70;3.00;;;17.50;1.00;;;;;;5019739;28;20413;-74
2021/07/29 04:43:31;;;;;;;6.68;3.25;;;17.50;99.90;;;;;;5035794;28;20022;-73
2021/07/29 04:46:00;;;;;;;4.68;3.17;;;17.40;99.90;;;;;;5034953;28;20017;-73
2021/07/29 04:48:26;;;;;;;5.15;3.85;;;17.40;99.90;;;;;;5031062;28;20079;-74
2021/07/29 04:50:51;;;;;;;3.45;2.70;;;17.30;99.90;;;;;;5032024;28;20076;-72
2021/07/29 04:53:17;;;;;;;4.78;2.83;;;17.30;99.90;;;;;;5034977;28;20052;-74
2021/07/29 04:55:42;;;;;;;5.00;3.40;;;17.40;99.90;;;;;;5035231;28;20033;-74
2021/07/29 04:58:08;;;;;;;4.03;3.13;;;17.70;99.90;;;;;;5034797;28;20033;-74
2021/07/29 05:00:34;;;;;;;3.10;2.80;;;18.00;99.90;;;;;;5019586;28;20308;-75
2021/07/29 05:03:00;;;;;;;3.00;2.80;;;18.00;99.90;;;;;;5034075;28;20476;-73
2021/07/29 05:05:25;;;;;;;2.65;2.45;;;18.20;99.90;;;;;;5035126;28;20056;-73
2021/07/29 05:07:54;;;;;;;3.30;2.58;;;18.40;99.90;;;;;;5035252;28;20029;-73
2021/07/29 05:10:19;;;;;;;4.85;2.88;;;18.70;99.90;;;;;;5035659;28;20095;-74
2021/07/29 05:12:45;;;;;;;2.88;2.35;;;19.20;71.20;;;;;;5037786;28;20022;-74
2021/07/29 05:15:11;;;;;;;3.33;2.58;;;19.80;99.90;;;;;;5037100;28;20021;-72
2021/07/29 05:17:36;;;;;;;3.30;3.00;;;20.30;98.30;;;;;;5037351;28;20512;-75
2021/07/29 05:20:02;;;;;;;6.03;2.92;;;20.50;99.90;;;;;;5035179;28;20496;-74
2021/07/29 05:22:28;;;;;;;4.78;3.38;;;20.50;99.90;;;;;;5034752;28;20021;-74
2021/07/29 05:24:53;;;;;;;2.25;1.85;;;20.80;99.90;;;;;;5034093;28;20101;-75
2021/07/29 05:27:19;;;;;;;3.22;2.60;;;21.10;99.90;;;;;;5033766;28;20041;-74
2021/07/29 05:29:45;;;;;;;2.55;2.30;;;21.50;99.90;;;;;;5030619;28;20057;-75
2021/07/29 05:32:10;;;;;;;2.95;1.90;;;21.70;99.90;;;;;;5031767;28;20030;-76
2021/07/29 05:34:36;;;;;;;4.05;2.95;;;21.70;99.90;;;;;;5033822;28;20029;-76
2021/07/29 05:37:01;;;;;;;3.83;2.30;;;22.50;99.90;;;;;;5012607;28;20041;-75
2021/07/29 05:39:28;;;;;;;2.58;2.38;;;22.50;99.90;;;;;;5032857;28;20068;-74
2021/07/29 05:41:53;;;;;;;4.25;2.42;;;22.70;99.90;;;;;;5015792;28;20025;-74
2021/07/29 05:44:19;;;;;;;2.75;2.03;;;23.10;99.90;;;;;;5033329;28;20715;-75
2021/07/29 05:46:44;;;;;;;4.70;1.92;;;22.90;99.90;;;;;;5033125;28;20035;-76
2021/07/29 05:49:10;;;;;;;4.20;2.30;;;23.00;99.90;;;;;;5032665;28;20032;-75
2021/07/29 05:51:35;;;;;;;3.53;2.05;;;23.00;99.90;;;;;;5033125;28;20028;-76
2021/07/29 05:54:01;;;;;;;3.78;1.88;;;23.40;99.90;;;;;;5033674;28;20026;-76
2021/07/29 05:56:28;;;;;;;2.47;2.10;;;23.80;99.90;;;;;;5033262;28;20026;-74
2021/07/29 05:58:54;;;;;;;5.15;1.98;;;23.70;99.90;;;;;;5033159;28;20105;-74
2021/07/29 06:01:22;;;;;;;4.63;2.33;;;23.70;99.90;;;;;;5033252;28;20110;-76
2021/07/29 06:03:47;;;;;;;6.70;2.05;;;23.60;99.90;;;;;;5033322;28;20018;-75
2021/07/29 06:06:13;;;;;;;1.85;1.58;;;23.30;99.90;;;;;;5032213;28;20041;-76
2021/07/29 06:08:38;;;;;;;2.55;1.77;;;23.30;99.90;;;;;;5032533;28;20401;-74
2021/07/29 06:11:04;;;;;;;3.28;1.85;;;22.80;99.90;;;;;;5032852;28;20021;-76
2021/07/29 06:13:30;;;;;;;6.35;3.33;;;22.60;99.90;;;;;;5032772;28;20057;-76
2021/07/29 06:16:00;;;;;;;3.22;1.90;;;22.60;99.90;;;;;;5033031;28;20021;-75
2021/07/29 06:18:25;;;;;;;3.50;1.80;;;22.50;99.90;;;;;;5032742;28;20048;-76
2021/07/29 06:20:51;;;;;;;2.85;1.77;;;22.40;99.90;;;;;;5032445;28;20128;-75
2021/07/29 06:23:16;;;;;;;2.92;1.83;;;22.50;99.90;;;;;;5015049;28;20025;-77
2021/07/29 06:25:42;;;;;;;2.08;1.80;;;22.50;99.90;;;;;;5015355;28;20109;-74
2021/07/29 06:28:12;;;;;;;2.47;1.60;;;22.30;99.90;;;;;;5035176;28;20485;-73
2021/07/29 06:30:38;;;;;;;3.50;1.80;;;22.00;99.90;;;;;;5035098;28;20027;-76
2021/07/29 06:33:04;;;;;;;4.68;2.00;;;21.90;99.90;;;;;;5033742;28;20112;-74
2021/07/29 06:35:29;;;;;;;2.90;1.92;;;21.90;99.90;;;;;;5018954;28;20017;-76
2021/07/29 06:37:57;;;;;;;2.58;1.95;;;22.00;99.90;;;;;;5014911;28;20021;-75
2021/07/29 06:40:22;;;;;;;4.60;2.42;;;21.80;99.90;;;;;;5031853;28;20037;-76
2021/07/29 06:42:48;;;;;;;3.08;1.75;;;21.70;99.90;;;;;;5032608;28;20048;-75
2021/07/29 06:45:14;;;;;;;2.00;1.80;;;21.70;99.90;;;;;;5032870;28;20030;-73
2021/07/29 06:47:40;;;;;;;2.78;2.08;;;21.70;99.90;;;;;;5034822;28;20037;-74
2021/07/29 06:50:06;;;;;;;2.10;1.83;;;21.70;99.90;;;;;;5035574;28;20496;-74
2021/07/29 06:52:32;;;;;;;2.75;1.90;;;21.60;99.90;;;;;;5016530;28;20124;-73
2021/07/29 06:54:57;;;;;;;2.95;1.92;;;21.60;99.90;;;;;;5017135;28;20116;-75
2021/07/29 06:57:23;;;;;;;2.30;1.80;;;21.70;99.90;;;;;;5032765;28;20029;-75
2021/07/29 06:59:48;;;;;;;3.35;2.80;;;21.80;99.90;;;;;;5014877;28;20048;-74
2021/07/29 07:02:14;;;;;;;3.03;2.45;;;21.80;99.90;;;;;;5032334;28;20031;-73
2021/07/29 07:04:40;;;;;;;3.67;2.22;;;22.10;99.90;;;;;;5032201;28;20025;-71
2021/07/29 07:07:13;;;;;;;3.00;2.00;;;22.20;99.90;;;;;;5026706;28;20033;-75
2021/07/29 07:09:39;;;;;;;2.92;1.90;;;22.20;99.90;;;;;;5014421;28;20028;-74
2021/07/29 07:12:05;;;;;;;2.35;1.73;;;22.20;99.90;;;;;;5032352;28;20022;-73
2021/07/29 07:14:30;;;;;;;1.90;1.80;;;22.20;99.90;;;;;;5032015;28;20018;-74
2021/07/29 07:16:56;;;;;;;3.20;2.15;;;22.30;99.90;;;;;;5033389;28;20022;-76
2021/07/29 07:19:21;;;;;;;2.63;1.63;;;22.30;99.90;;;;;;5032221;28;20079;-74
2021/07/29 07:21:47;;;;;;;3.00;2.17;;;22.30;99.90;;;;;;5032436;28;20025;-75
2021/07/29 07:24:12;;;;;;;3.42;2.10;;;22.40;99.90;;;;;;5032182;28;20021;-74
2021/07/29 07:26:38;;;;;;;4.28;2.10;;;22.50;99.90;;;;;;5033651;28;20021;-76
2021/07/29 07:29:05;;;;;;;2.58;1.95;;;22.50;99.90;;;;;;5036285;28;20359;-75
2021/07/29 07:31:31;;;;;;;3.30;2.03;;;22.60;99.90;;;;;;5035754;28;20071;-75
2021/07/29 07:33:57;;;;;;;3.72;2.00;;;22.80;99.90;;;;;;5036222;28;20022;-76
2021/07/29 07:36:23;;;;;;;2.45;2.05;;;23.00;99.90;;;;;;5036034;28;20075;-74
2021/07/29 07:38:52;;;;;;;6.47;1.90;;;23.00;99.90;;;;;;5037325;28;20464;-75
2021/07/29 07:41:18;;;;;;;4.05;1.80;;;23.00;99.90;;;;;;5036964;28;20021;-76
2021/07/29 07:43:43;;;;;;;4.07;1.85;;;23.10;99.90;;;;;;5036052;28;20037;-77
2021/07/29 07:46:09;;;;;;;2.67;2.05;;;23.10;99.90;;;;;;5036176;28;20116;-75
2021/07/29 07:48:34;;;;;;;3.22;2.58;;;23.40;99.90;;;;;;5036170;28;20026;-75
2021/07/29 07:51:00;;;;;;;6.93;2.00;;;23.60;99.90;;;;;;5018434;28;20060;-76
2021/07/29 07:53:29;;;;;;;5.93;1.95;;;24.00;99.90;;;;;;5036515;28;20493;-74
2021/07/29 07:55:56;;;;;;;2.20;1.85;;;24.00;99.90;;;;;;5036234;28;20493;-76
2021/07/29 07:58:22;;;;;;;3.88;1.98;;;23.80;99.90;;;;;;5037638;28;20029;-74
2021/07/29 08:00:48;;;;;;;2.20;2.00;;;23.80;99.90;;;;;;5019849;28;20053;-73
2021/07/29 08:03:14;;;;;;;4.18;2.15;;;23.50;99.90;;;;;;5042639;28;20101;-75
2021/07/29 08:05:40;;;;;;;2.10;1.90;;;23.40;99.90;;;;;;5026006;28;20563;-75
2021/07/29 08:08:08;;;;;;;2.72;1.88;;;23.30;99.90;;;;;;5048935;28;20026;-74
2021/07/29 08:10:38;;;;;;;5.47;2.50;;;23.30;99.90;;;;;;5048492;28;20022;-75
2021/07/29 08:13:07;;;;;;;3.10;1.90;;;23.40;99.90;;;;;;5047740;28;20021;-73
2021/07/29 08:15:33;;;;;;;7.70;3.08;;;23.60;99.90;;;;;;5046896;28;20261;-75
2021/07/29 08:17:59;;;;;;;2.20;2.00;;;23.80;99.90;;;;;;5043368;28;20026;-76
2021/07/29 08:20:25;;;;;;;3.30;2.22;;;23.60;99.90;;;;;;5040255;28;20034;-74
2021/07/29 08:22:52;;;;;;;2.65;1.70;;;23.40;99.90;;;;;;5038344;28;20025;-74
2021/07/29 08:25:20;;;;;;;3.80;2.13;;;23.20;99.90;;;;;;5044520;28;20053;-74
2021/07/29 08:27:53;;;;;;;3.17;1.90;;;22.90;99.90;;;;;;5046237;28;20029;-74
2021/07/29 08:30:20;;;;;;;4.85;2.47;;;23.00;99.90;;;;;;5045075;28;20018;-74
2021/07/29 08:32:46;;;;;;;2.88;2.05;;;23.00;99.90;;;;;;5044238;28;20063;-75
2021/07/29 08:35:12;;;;;;;3.35;2.38;;;22.80;99.90;;;;;;5042733;28;20022;-75
2021/07/29 08:37:43;;;;;;;2.53;2.30;;;22.70;99.90;;;;;;5044840;28;20092;-75
2021/07/29 08:40:10;;;;;;;2.53;2.22;;;22.90;99.90;;;;;;5045300;28;20038;-74
2021/07/29 08:42:36;;;;;;;2.83;2.15;;;23.20;99.90;;;;;;5047096;28;20052;-75
2021/07/29 08:45:01;;;;;;;3.05;2.75;;;23.30;99.90;;;;;;5046300;28;20034;-74
2021/07/29 08:47:32;;;;;;;4.90;2.92;;;23.60;99.90;;;;;;5044177;28;20393;-74
2021/07/29 08:50:00;;;;;;;4.20;2.50;;;23.50;99.90;;;;;;5030767;28;20028;-74
2021/07/29 08:52:26;;;;;;;3.60;2.50;;;23.50;99.90;;;;;;5049409;28;20033;-74
2021/07/29 08:54:52;;;;;;;2.33;2.05;;;23.70;99.90;;;;;;5047315;28;20088;-74
2021/07/29 08:57:29;;;;;;;3.08;2.28;;;23.70;99.90;;;;;;5044231;28;20028;-74
2021/07/29 09:00:06;;;;;;;6.15;3.22;;;23.80;99.60;;;;;;5042177;28;20025;-73
2021/07/29 09:02:32;;;;;;;2.80;2.42;;;23.40;99.90;;;;;;5044338;28;20093;-74
2021/07/29 09:05:21;;;;;;;3.75;2.47;;;23.50;99.90;;;;;;5024926;28;20102;-73
2021/07/29 09:08:03;;;;;;;4.20;2.08;;;23.50;99.90;;;;;;5025223;28;20483;-73
2021/07/29 09:10:29;;;;;;;3.92;2.33;;;23.30;99.90;;;;;;5016216;28;20057;-75
2021/07/29 09:13:17;;;;;;;3.65;2.55;;;23.30;99.90;;;;;;5023482;28;20026;-74
2021/07/29 09:16:06;;;;;;;2.78;2.47;;;23.70;99.90;;;;;;5022461;28;20109;-75
2021/07/29 09:18:39;;;;;;;2.65;2.30;;;23.70;99.30;;;;;;5025199;28;20026;-73
2021/07/29 09:21:13;;;;;;;5.20;2.25;;;23.10;99.80;;;;;;5029112;28;20025;-74
2021/07/29 09:23:39;;;;;;;2.60;2.20;;;22.80;99.90;;;;;;5019723;28;20030;-74
2021/07/29 09:26:04;;;;;;;4.95;2.60;;;22.80;99.90;;;;;;5019579;28;20052;-74
2021/07/29 09:28:32;;;;;;;3.67;2.60;;;22.90;99.90;;;;;;5019693;28;20033;-74
2021/07/29 09:30:57;;;;;;;4.85;2.80;;;22.90;99.90;;;;;;5019603;28;20032;-75
2021/07/29 09:33:23;;;;;;;3.33;2.63;;;23.00;99.90;;;;;;4999630;28;20026;-74
2021/07/29 09:35:53;;;;;;;2.47;2.28;;;23.20;99.50;;;;;;5015901;28;20504;-76
2021/07/29 09:38:25;;;;;;;4.32;3.63;;;22.90;99.40;;;;;;5014787;28;20021;-75
2021/07/29 09:40:53;;;;;;;2.42;2.22;;;23.10;99.90;;;;;;5016474;28;20038;-73
2021/07/29 09:43:29;;;;;;;2.47;2.20;;;23.50;99.70;;;;;;5017321;28;20371;-74
2021/07/29 09:45:56;;;;;;;2.80;2.45;;;23.50;98.80;;;;;;5015526;28;20033;-74
2021/07/29 09:48:23;;;;;;;4.18;2.58;;;24.00;98.40;;;;;;5014232;28;20113;-76
2021/07/29 09:50:58;;;;;;;3.70;3.20;;;24.00;97.80;;;;;;5013483;28;20041;-75
2021/07/29 09:53:23;;;;;;;2.47;2.28;;;24.20;97.10;;;;;;4996386;28;20033;-75
2021/07/29 09:55:49;;;;;;;2.30;2.10;;;23.90;96.80;;;;;;4995684;28;20156;-74
2021/07/29 09:58:15;;;;;;;2.55;2.35;;;23.70;97.60;;;;;;5026385;28;20028;-74
2021/07/29 10:00:42;;;;;;;3.72;1.88;;;23.60;98.00;;;;;;5016850;28;20037;-75
2021/07/29 10:03:09;;;;;;;2.50;2.30;;;24.10;99.00;;;;;;5034528;28;20615;-75
2021/07/29 10:05:53;;;;;;;2.13;2.00;;;24.50;98.00;;;;;;5034185;28;20053;-75
2021/07/29 10:08:28;;;;;;;3.33;2.40;;;24.80;97.40;;;;;;5015562;28;20029;-73
2021/07/29 10:10:54;;;;;;;4.20;2.42;;;25.00;96.10;;;;;;5033874;28;20017;-75
2021/07/29 10:13:31;;;;;;;3.15;2.33;;;25.00;95.80;;;;;;5033133;28;20033;-75
2021/07/29 10:15:56;;;;;;;3.50;2.20;;;24.90;96.30;;;;;;5034351;28;20048;-77
2021/07/29 10:18:22;;;;;;;3.08;2.28;;;24.30;95.80;;;;;;5034493;28;20497;-74
2021/07/29 10:21:20;;;;;;;3.35;2.42;;;23.80;96.10;;;;;;5033992;28;20473;-73
2021/07/29 10:23:58;;;;;;;2.92;2.50;;;24.00;96.30;;;;;;5033940;28;20108;-74
2021/07/29 10:26:45;;;;;;;3.00;2.50;;;23.80;96.60;;;;;;5033852;28;20022;-76
2021/07/29 10:29:19;;;;;;;3.88;2.60;;;23.70;97.10;;;;;;5022505;28;20512;-76
2021/07/29 10:31:50;;;;;;;3.22;2.42;;;23.80;96.20;;;;;;5033465;28;20029;-74
2021/07/29 10:34:32;;;;;;;3.08;2.78;;;23.40;95.90;;;;;;5032949;28;20029;-76
2021/07/29 10:37:05;;;;;;;3.13;2.70;;;23.20;96.70;;;;;;5033391;28;20033;-76
2021/07/29 10:39:32;;;;;;;3.72;2.38;;;23.30;96.60;;;;;;5057108;22;20044;-77
2021/07/29 10:41:58;;;;;;;2.72;2.45;;;23.40;96.20;;;;;;5015554;28;20022;-78
2021/07/29 10:44:36;;;;;;;2.85;2.60;;;23.50;96.70;;;;;;5033135;28;20013;-78
2021/07/29 10:47:03;;;;;;;4.30;2.67;;;23.80;96.10;;;;;;5015627;28;20022;-77
2021/07/29 10:49:44;;;;;;;3.08;2.70;;;23.40;96.20;;;;;;5016487;28;20465;-78
2021/07/29 10:52:13;;;;;;;3.13;2.60;;;23.20;97.00;;;;;;5032666;28;20148;-79
2021/07/29 10:54:42;;;;;;;4.65;2.80;;;22.90;96.40;;;;;;5032851;28;20079;-78
2021/07/29 10:57:13;;;;;;;2.95;2.65;;;22.90;97.20;;;;;;5032762;28;20389;-78
2021/07/29 10:59:39;;;;;;;;;;;22.90;97.40;;;;;;5015148;28;20061;-78
2021/07/29 11:02:13;;;;;;;3.47;2.97;;;22.90;97.10;;;;;;5037161;28;19916;-78
2021/07/29 11:05:00;;;;;;;3.67;2.63;;;23.20;96.90;;;;;;5036909;28;20056;-78
2021/07/29 11:07:26;;;;;;;3.60;3.30;;;23.50;96.60;;;;;;5020160;28;20397;-77
2021/07/29 11:10:12;;;;;;;3.45;3.15;;;23.70;96.10;;;;;;5036569;28;20032;-77
2021/07/29 11:12:39;;;;;;;3.42;2.88;;;24.20;95.70;;;;;;5020578;28;20022;-78
2021/07/29 11:15:06;;;;;;;3.63;3.30;;;24.60;95.30;;;;;;5036541;28;20028;-78
2021/07/29 11:17:32;;;;;;;2.78;2.55;;;24.90;93.80;;;;;;5036109;28;20037;-77
2021/07/29 11:19:57;;;;;;;3.22;2.90;;;25.20;93.70;;;;;;5036465;28;20033;-78
2021/07/29 11:22:23;;;;;;;4.03;2.78;;;25.40;93.10;;;;;;5018448;28;20025;-78
2021/07/29 11:24:49;;;;;;;5.53;2.70;;;25.60;92.70;;;;;;5018413;28;20040;-78
2021/07/29 11:27:14;;;;;;;3.30;2.40;;;25.80;92.60;;;;;;5018294;28;20087;-77
2021/07/29 11:29:53;;;;;;;3.10;2.70;;;25.80;92.20;;;;;;5035532;28;20389;-77
2021/07/29 11:32:21;;;;;;;3.58;2.65;;;26.20;91.70;;;;;;5036524;28;20100;-77
2021/07/29 11:34:56;;;;;;;4.40;2.47;;;26.20;91.60;;;;;;5018962;28;20045;-78
2021/07/29 11:37:21;;;;;;;3.17;2.53;;;25.90;91.30;;;;;;5018755;28;20046;-78
2021/07/29 11:39:47;;;;;;;2.72;2.35;;;25.30;91.90;;;;;;5035783;28;20067;-77
2021/07/29 11:42:13;;;;;;;3.00;2.70;;;25.70;92.50;;;;;;5017941;28;20033;-78
2021/07/29 11:44:43;;;;;;;3.35;2.40;;;26.10;91.30;;;;;;5018110;28;20025;-78
2021/07/29 11:47:09;;;;;;;2.92;2.72;;;26.20;91.30;;;;;;5035444;28;20108;-78
2021/07/29 11:49:50;;;;;;;3.45;2.75;;;26.10;91.20;;;;;;5036017;28;20049;-78
2021/07/29 11:52:17;;;;;;;3.65;2.60;;;25.80;91.30;;;;;;5007404;28;20033;-78
2021/07/29 11:54:43;;;;;;;2.70;2.47;;;25.60;90.80;;;;;;5015238;28;20037;-77
2021/07/29 11:57:09;;;;;;;3.03;2.33;;;25.40;91.40;;;;;;4998336;28;20030;-78
2021/07/29 11:59:38;;;;;;;4.15;2.72;;;25.50;91.30;;;;;;5015449;28;20441;-78
2021/07/29 12:02:05;;;;;;;3.00;2.70;;;25.00;91.80;;;;;;5015417;28;20092;-79
2021/07/29 12:04:42;;;;;;;2.97;2.65;;;25.40;92.50;;;;;;5015563;28;20022;-78
2021/07/29 12:07:09;;;;;;;2.92;2.38;;;25.60;91.60;;;;;;4998827;28;20485;-78
2021/07/29 12:09:38;;;;;;;4.20;2.78;;;25.70;91.50;;;;;;5030734;28;20037;-77
2021/07/29 12:12:04;;;;;;;4.47;3.00;;;25.80;91.70;;;;;;5035150;28;20087;-78
2021/07/29 12:14:30;;;;;;;3.13;2.83;;;25.80;91.50;;;;;;5035483;28;20389;-78
2021/07/29 12:16:56;;;;;;;3.70;2.25;;;25.70;91.30;;;;;;5017280;28;20072;-79
2021/07/29 12:19:22;;;;;;;3.03;2.70;;;25.50;91.10;;;;;;5035040;28;20072;-77
2021/07/29 12:21:49;;;;;;;4.18;2.28;;;25.90;90.90;;;;;;5034710;28;20040;-77
2021/07/29 12:24:15;;;;;;;3.55;2.25;;;25.20;90.40;;;;;;5017353;28;20555;-77
2021/07/29 12:27:01;;;;;;;4.35;2.92;;;24.70;91.30;;;;;;5017230;28;20488;-78
2021/07/29 12:29:44;;;;;;;5.72;2.33;;;24.90;91.30;;;;;;5034498;28;20033;-78
2021/07/29 12:32:26;;;;;;;2.72;2.50;;;25.00;91.30;;;;;;5016999;28;20067;-78
2021/07/29 12:34:54;;;;;;;4.57;2.95;;;25.30;91.70;;;;;;5034810;28;20029;-78
2021/07/29 12:37:34;;;;;;;3.60;2.58;;;25.90;91.50;;;;;;5035137;28;20101;-78
2021/07/29 12:40:01;;;;;;;6.70;3.03;;;25.80;91.20;;;;;;5016834;28;20604;-79
2021/07/29 12:42:32;;;;;;;3.22;2.92;;;25.60;91.00;;;;;;5034759;28;20040;-78
2021/07/29 12:45:06;;;;;;;5.53;3.58;;;25.30;91.00;;;;;;5017252;28;20018;-79
2021/07/29 12:47:31;;;;;;;4.28;3.88;;;25.80;90.70;;;;;;5016612;28;20037;-77
2021/07/29 12:49:57;;;;;;;2.80;2.40;;;25.80;90.60;;;;;;5034701;28;20025;-78
2021/07/29 12:52:24;;;;;;;3.38;2.58;;;25.50;90.30;;;;;;5034159;28;20021;-78
2021/07/29 12:55:01;;;;;;;3.17;2.88;;;25.30;90.60;;;;;;5034912;28;20080;-78